Pagrindinis puslapis
METAR-TAF:

METAR-TAF

Oro uostai :

Čiangmajus, Tailandas

platuma: 18-47N, ilguma: 098-59E, Aukštis: 312 m

Dabartinis oras

Ataskaita buvo paskelbta 29 minutes, ne 19:30 UTC
Vėjas 3 kt iš Šiaurės/Šiaurės Vakarų, svyruoja nuo Šiaurės Vakarų ir Šiaurės/Šiaurės Rytų
Temperatūra 26°C
Drėgmė 89%
Slėgis 1010 hPa
Matomumas 10 km arba daugiau
Mažai debesys ne aukštis 3500 ft

METAR: VTCC 221930Z 33003KT 310V020 9999 FEW035 26/24 Q1010 NOSIG

Laikas: 02:59 (19:59 UTC)

Prognozė

Ataskaita buvo paskelbta 2 valandos ir 59 minutes, ne 17:00 UTC
Prognozė galioja nuo 22 metu 18 UTC su 23 metu 24 UTC
Vėjas 5 kt iš Pietų/Pietvakarių
Matomumas 10 km arba daugiau
Išsisklaidę debesys ne aukštis 3500 ft
Laikinai
nuo 23 metu 08 UTC su 23 metu 12 UTC
Vėjas 15 kt iš Vakarų/Pietvakarių
Matomumas: 4000 m
Mažai debesys ne aukštis 1800 ft, Liūtiniai kamuoliniai debesys.
Su prošvaistėmis ne aukštis 2500 ft
perkūnija, lietus

TAF: VTCC 221700Z 2218/2324 20005KT 9999 SCT035 TEMPO 2308/2312 24015KT 4000 TSRA FEW018CB BKN025

Orai ataskaitas ir orų prognozės (METAR, TAF).

turimą stotys yra geltonos ir raudonos taškus žemėlapyje.

Perkelti pele per norėdami pamatyti stoties vardą.

Tada spustelėkite, norėdami matyti oro stebėjimo ir prognozės.

Norėdami pakeisti žemėlapį: spustelėkite ant žalios mygtukų su juodo kryžiaus žemyn,; žalią mygtuką su brūkšneliu, jei norite nutolinti; arba žalių rodyklių gretimoms žemėlapius.


METAR-TAF: